Airfield :
LOGIN :

Register | Disclaimer

   EN    FR    IT 

 










Legend :    VFR   Marginal VFR   IFR   Intensive IFR   Very Intensive IFR
Visi :
Ceiling :
>= 8 km
>= 3000ft
5 to 8 km
1000 to 3000 ft
1500m to 5 km
500 to 1000 ft
800 to 1500m
200 to 500 ft
< 800m
< 200 ft
Symbols :   Thunderstorms  Fog  Heavy snow  Heavy precipitations  Wind > 20 kt
SIGMETs :     Misc.  Thunderstorms  Icing  Turbulence  Mountain Waves  Volcanic Ashes






- Airport Elevation : 446 ft
- IATA code : VNE


LFRV - Vannes-Meucon

CURRENT METAR :
  • 291700Z AUTO 07011KT 030V100 CAVOK 25/04 Q1019

EXPIRED METARs :
  • 291630Z AUTO 08010KT CAVOK 25/03 Q1019
  • 291600Z AUTO 08011KT 040V120 CAVOK 26/04 Q1019
  • 291530Z AUTO 07012KT 030V110 CAVOK 26/04 Q1019
  • 291500Z AUTO 08012KT 040V100 CAVOK 26/04 Q1019
  • 291430Z AUTO 09013KT 050V110 CAVOK 25/04 Q1020

TAF N/A



MET'MAP, your aeronautical weather chart ! - Copyright ORBIFLY December 2007 - Disclaimer

ORBIFLY MET'MAP TEAM :

Programming & Development : Alexandra Zaïnal
Concept & original design : Baudouin d'Aumeries
Assistance for programming : Marc-Olivier Méhu
Technical & hardware support : Manuel Goepfert

Contact : metmap@orbifly.com




SOURCES & CREDITS :

   NOAA